KCVW

National Data Buoy Center

Cameron, Louisiana, USA
METAR KCVW 151840Z AUTO 19007KT 8SM SCT019 SCT025 OVC044 19/18 A2983 RMK A01
Observed Flight Rules
Feb-15 @ 18:40 UTC (29 minutes ago) Visual Flight Rules
Wind Visibility Clouds
190° at 7 knots 8 miles
  • Scattered at 1,900' AGL
  • Scattered at 2,500' AGL
  • Overcast at 4,400' AGL
Temperatures Readings
Current 19°C / 66°F
Dewpoint 18°C / 64°F
Humidity 94%
Altimeter 29.83" Hg
Pressure 1010.12 hPa
Elevation 1
METAR KCVW 151840Z AUTO 19007KT 8SM SCT019 SCT025 OVC044 19/18 A2983 RMK A01
Observed Flight Rules
Feb-15 @ 18:40 UTC
(29 minutes ago)
VFR
Wind Visibility
190° at 7 knots 8 miles
Clouds
  • Scattered at 1,900' AGL
  • Scattered at 2,500' AGL
  • Overcast at 4,400' AGL
Temperature Dewpoint
19°C / 66°F 18°C / 64°F
Humidity Altimeter Pressure
94% 29.83" Hg 1010.12 hPa